createdAt,value
2022-07-28T00:00:02.719Z,64.40
2022-07-28T00:02:30.834Z,65.29
2022-07-28T00:04:58.966Z,65.04
2022-07-28T00:07:27.053Z,64.77
2022-07-28T00:10:00.276Z,65.46
2022-07-28T00:12:29.127Z,65.39
2022-07-28T00:14:57.252Z,65.50
2022-07-28T00:17:25.221Z,65.33
2022-07-28T00:19:53.647Z,65.88
2022-07-28T00:22:21.918Z,65.79
2022-07-28T00:24:50.717Z,65.84
2022-07-28T00:27:22.519Z,66.11
2022-07-28T00:29:51.322Z,66.01
2022-07-28T00:32:20.585Z,65.71
2022-07-28T00:34:53.488Z,65.65
2022-07-28T00:37:22.000Z,65.73
2022-07-28T00:39:50.020Z,66.32
2022-07-28T00:42:19.167Z,66.60
2022-07-28T00:44:49.059Z,66.14
2022-07-28T00:47:17.001Z,66.24
2022-07-28T00:49:46.408Z,66.46
2022-07-28T00:52:17.288Z,66.77
2022-07-28T00:54:45.493Z,66.35
2022-07-28T00:57:13.699Z,66.35
2022-07-28T00:59:42.403Z,67.11
2022-07-28T01:02:14.042Z,67.14
2022-07-28T01:04:42.021Z,66.78
2022-07-28T01:07:16.423Z,67.02
2022-07-28T01:09:53.353Z,67.51
2022-07-28T01:12:47.049Z,66.85
2022-07-28T01:15:23.731Z,67.48
2022-07-28T01:18:00.433Z,67.33
2022-07-28T01:20:35.244Z,67.47
2022-07-28T01:23:24.174Z,67.37
2022-07-28T01:26:07.592Z,67.66
2022-07-28T01:28:55.575Z,67.47
2022-07-28T01:31:27.700Z,67.51
2022-07-28T01:33:59.632Z,67.50
2022-07-28T01:36:34.358Z,67.85
2022-07-28T01:39:03.554Z,68.07
2022-07-28T01:41:34.138Z,68.01
2022-07-28T01:44:07.332Z,67.82
2022-07-28T01:46:38.438Z,67.87
2022-07-28T01:49:09.316Z,67.92
2022-07-28T01:51:38.327Z,67.94
2022-07-28T01:54:08.943Z,68.28
2022-07-28T01:56:38.082Z,67.84
2022-07-28T01:59:09.953Z,68.39
2022-07-28T02:01:45.678Z,67.94
2022-07-28T02:04:19.663Z,68.45
2022-07-28T02:06:49.082Z,68.48
2022-07-28T02:09:17.937Z,68.37
2022-07-28T02:11:47.432Z,68.20
2022-07-28T02:14:17.762Z,68.49
2022-07-28T02:16:50.429Z,68.58
2022-07-28T02:19:20.857Z,68.52
2022-07-28T02:21:50.745Z,68.36
2022-07-28T02:24:22.625Z,68.69
2022-07-28T02:26:56.946Z,68.68
2022-07-28T02:29:49.604Z,68.80
2022-07-28T02:32:27.667Z,68.73
2022-07-28T02:35:00.185Z,68.52
2022-07-28T02:37:35.959Z,68.70
2022-07-28T02:40:05.764Z,68.77
2022-07-28T02:42:36.696Z,68.90
2022-07-28T02:45:08.002Z,68.46
2022-07-28T02:47:42.439Z,68.43
2022-07-28T02:50:12.254Z,68.82
2022-07-28T02:52:42.784Z,68.84
2022-07-28T02:55:13.599Z,68.60
2022-07-28T02:57:45.067Z,68.52
2022-07-28T03:00:14.438Z,68.50
2022-07-28T03:02:46.983Z,68.68
2022-07-28T03:05:16.997Z,68.91
2022-07-28T03:07:50.933Z,68.90
2022-07-28T03:10:33.529Z,68.79
2022-07-28T03:13:04.102Z,68.44
2022-07-28T03:15:32.410Z,68.64
2022-07-28T03:18:02.272Z,68.57
2022-07-28T03:20:30.699Z,68.62
2022-07-28T03:22:59.480Z,68.76
2022-07-28T03:25:31.259Z,68.58
2022-07-28T03:28:01.197Z,68.77
2022-07-28T03:30:36.333Z,68.62
2022-07-28T03:33:05.944Z,68.59
2022-07-28T03:35:36.116Z,68.77
2022-07-28T03:38:09.678Z,68.70
2022-07-28T03:40:39.819Z,68.77
2022-07-28T03:43:10.959Z,68.78
2022-07-28T03:45:40.955Z,68.91
2022-07-28T03:48:10.281Z,68.88
2022-07-28T03:50:38.298Z,68.97
2022-07-28T03:53:15.338Z,68.70
2022-07-28T03:55:43.246Z,68.78
2022-07-28T03:58:11.096Z,68.67
2022-07-28T04:00:39.109Z,68.74
2022-07-28T04:03:35.236Z,68.86
2022-07-28T04:05:58.255Z,69.01
2022-07-28T04:08:26.137Z,68.84
2022-07-28T04:10:54.384Z,69.05
2022-07-28T04:13:22.570Z,68.89
2022-07-28T04:15:50.371Z,68.91
2022-07-28T04:18:18.513Z,68.89
2022-07-28T04:20:47.099Z,68.85
2022-07-28T04:23:16.358Z,68.99
2022-07-28T04:25:44.357Z,69.07
2022-07-28T04:28:12.273Z,68.88
2022-07-28T04:30:44.205Z,68.85
2022-07-28T04:33:12.791Z,69.13
2022-07-28T04:35:40.896Z,68.92
2022-07-28T04:38:08.741Z,69.06
2022-07-28T04:40:39.040Z,68.81
2022-07-28T04:43:07.226Z,69.01
2022-07-28T04:45:35.539Z,68.73
2022-07-28T04:48:03.420Z,69.09
2022-07-28T04:50:31.295Z,69.00
2022-07-28T04:53:00.139Z,69.00
2022-07-28T04:55:28.141Z,68.78
2022-07-28T04:57:57.398Z,68.79
2022-07-28T05:00:28.701Z,68.90
2022-07-28T05:02:58.381Z,68.59
2022-07-28T05:05:26.579Z,68.68
2022-07-28T05:07:55.503Z,68.66
2022-07-28T05:10:23.910Z,68.65
2022-07-28T05:12:53.306Z,68.56
2022-07-28T05:15:22.912Z,68.81
2022-07-28T05:17:50.930Z,68.95
2022-07-28T05:20:18.774Z,69.02
2022-07-28T05:22:51.274Z,68.65
2022-07-28T05:25:21.758Z,68.70
2022-07-28T05:27:50.803Z,68.60
2022-07-28T05:30:19.704Z,68.89
2022-07-28T05:32:49.509Z,68.92
2022-07-28T05:35:17.696Z,68.91
2022-07-28T05:37:45.600Z,68.83
2022-07-28T05:40:15.510Z,68.79
2022-07-28T05:42:44.205Z,68.98
2022-07-28T05:45:15.969Z,68.85
2022-07-28T05:47:47.234Z,68.73
2022-07-28T05:50:17.591Z,68.74
2022-07-28T05:52:46.319Z,68.71
2022-07-28T05:55:15.580Z,68.67
2022-07-28T05:57:43.424Z,68.61
2022-07-28T06:00:16.569Z,68.90
2022-07-28T06:02:46.130Z,68.67
2022-07-28T06:05:14.725Z,68.83
2022-07-28T06:07:44.713Z,68.75
2022-07-28T06:10:13.976Z,68.81
2022-07-28T06:12:42.815Z,69.03
2022-07-28T06:15:14.528Z,68.67
2022-07-28T06:17:42.668Z,68.95
2022-07-28T06:20:12.234Z,68.90
2022-07-28T06:22:46.424Z,68.79
2022-07-28T06:25:15.446Z,69.24
2022-07-28T06:27:43.668Z,68.88
2022-07-28T06:30:12.409Z,68.86
2022-07-28T06:32:40.308Z,69.05
2022-07-28T06:35:09.414Z,69.15
2022-07-28T06:37:37.416Z,69.01
2022-07-28T06:40:08.963Z,69.14
2022-07-28T06:42:36.889Z,69.18
2022-07-28T06:45:05.646Z,69.24
2022-07-28T06:47:33.766Z,69.38
2022-07-28T06:50:01.669Z,69.28
2022-07-28T06:52:29.910Z,69.34
2022-07-28T06:54:58.456Z,69.21
2022-07-28T06:57:33.598Z,69.15
2022-07-28T07:00:03.582Z,69.15
2022-07-28T07:02:31.836Z,69.22
2022-07-28T07:05:01.034Z,69.11
2022-07-28T07:07:28.897Z,69.13
2022-07-28T07:09:56.679Z,69.16
2022-07-28T07:12:25.015Z,69.11
2022-07-28T07:14:55.073Z,68.98
2022-07-28T07:17:22.953Z,69.01
2022-07-28T07:19:51.057Z,69.00
2022-07-28T07:22:19.345Z,68.94
2022-07-28T07:24:47.198Z,69.00
2022-07-28T07:27:15.460Z,68.83
2022-07-28T07:29:43.318Z,68.82
2022-07-28T07:32:12.549Z,68.88
2022-07-28T07:34:40.614Z,68.72
2022-07-28T07:37:13.537Z,68.67
2022-07-28T07:39:42.478Z,68.70
2022-07-28T07:42:10.537Z,68.67
2022-07-28T07:44:39.451Z,68.58
2022-07-28T07:47:10.362Z,68.64
2022-07-28T07:49:44.977Z,68.41
2022-07-28T07:52:14.472Z,68.53
2022-07-28T07:54:42.702Z,68.44
2022-07-28T07:57:10.827Z,68.28
2022-07-28T07:59:39.090Z,68.12
2022-07-28T08:02:07.923Z,68.36
2022-07-28T08:04:37.709Z,68.22
2022-07-28T08:07:07.900Z,68.36
2022-07-28T08:09:36.365Z,68.17
2022-07-28T08:12:04.884Z,68.13
2022-07-28T08:14:33.039Z,68.15
2022-07-28T08:17:00.889Z,67.95
2022-07-28T08:19:29.082Z,68.07
2022-07-28T08:21:57.108Z,68.14
2022-07-28T08:24:32.708Z,67.75
2022-07-28T08:27:02.625Z,67.94
2022-07-28T08:29:30.384Z,67.84
2022-07-28T08:31:58.359Z,67.86
2022-07-28T08:34:33.061Z,67.77
2022-07-28T08:37:03.419Z,67.63
2022-07-28T08:39:36.780Z,67.70
2022-07-28T08:42:07.267Z,67.49
2022-07-28T08:44:44.270Z,67.61
2022-07-28T08:47:13.211Z,67.36
2022-07-28T08:49:43.717Z,67.32
2022-07-28T08:52:14.054Z,67.21
2022-07-28T08:54:46.502Z,67.35
2022-07-28T08:57:19.021Z,67.19
2022-07-28T08:59:48.763Z,67.08
2022-07-28T09:02:17.347Z,67.13
2022-07-28T09:04:46.625Z,67.36
2022-07-28T09:07:14.711Z,66.92
2022-07-28T09:09:44.737Z,66.88
2022-07-28T09:12:12.949Z,66.79
2022-07-28T09:14:40.897Z,66.67
2022-07-28T09:17:09.745Z,66.62
2022-07-28T09:19:38.815Z,66.47
2022-07-28T09:22:08.349Z,66.46
2022-07-28T09:24:37.718Z,66.33
2022-07-28T09:27:09.420Z,66.25
2022-07-28T09:29:39.258Z,66.33
2022-07-28T09:32:07.738Z,66.20
2022-07-28T09:34:42.717Z,66.00
2022-07-28T09:37:20.987Z,65.78
2022-07-28T09:39:53.220Z,65.85
2022-07-28T09:42:22.727Z,65.77
2022-07-28T09:45:24.612Z,65.67
2022-07-28T09:48:11.136Z,65.72
2022-07-28T09:50:40.451Z,65.66
2022-07-28T09:53:27.522Z,65.69
2022-07-28T09:55:59.222Z,65.57
2022-07-28T09:58:29.609Z,65.63
2022-07-28T10:01:10.189Z,65.26
2022-07-28T10:03:42.896Z,65.49
2022-07-28T10:06:16.337Z,65.40
2022-07-28T10:08:47.123Z,65.11
2022-07-28T10:11:17.085Z,65.18
2022-07-28T10:13:58.381Z,64.92
2022-07-28T10:16:27.980Z,64.78
2022-07-28T10:18:56.660Z,64.90
2022-07-28T10:21:26.313Z,64.79
2022-07-28T10:23:55.944Z,64.47
2022-07-28T10:26:30.230Z,64.60
2022-07-28T10:29:04.984Z,64.64
2022-07-28T10:31:36.133Z,64.49
2022-07-28T10:34:06.592Z,64.19
2022-07-28T10:36:36.133Z,64.45
2022-07-28T10:39:11.272Z,63.92
2022-07-28T10:41:42.412Z,63.95
2022-07-28T10:44:15.545Z,63.66
2022-07-28T10:46:44.572Z,64.02
2022-07-28T10:49:14.088Z,63.63
2022-07-28T10:52:06.319Z,63.73
2022-07-28T10:54:44.192Z,63.60
2022-07-28T10:57:14.387Z,63.60
2022-07-28T11:00:12.629Z,63.36
2022-07-28T11:02:46.284Z,63.21
2022-07-28T11:05:39.077Z,62.80
2022-07-28T11:08:10.852Z,62.68
2022-07-28T11:10:48.144Z,62.73
2022-07-28T11:13:29.217Z,62.50
2022-07-28T11:16:18.268Z,62.29
2022-07-28T11:19:04.930Z,62.34
2022-07-28T11:21:41.092Z,62.50
2022-07-28T11:24:09.459Z,61.89
2022-07-28T11:26:46.025Z,61.88
2022-07-28T11:29:22.382Z,61.49
2022-07-28T11:32:07.901Z,61.54
2022-07-28T11:35:11.240Z,61.33
2022-07-28T11:38:11.125Z,61.52
2022-07-28T11:40:41.554Z,60.95
2022-07-28T11:43:36.426Z,60.88
2022-07-28T11:46:37.637Z,60.99
2022-07-28T11:49:26.042Z,60.79
2022-07-28T11:52:15.475Z,60.45
2022-07-28T11:54:51.616Z,60.40
2022-07-28T11:57:21.318Z,60.28
2022-07-28T12:00:08.451Z,60.02
2022-07-28T12:02:36.855Z,59.98
2022-07-28T12:05:13.536Z,59.73
2022-07-28T12:07:44.814Z,59.46
2022-07-28T12:13:28.129Z,59.30
2022-07-28T12:15:57.632Z,59.30
2022-07-28T12:18:25.613Z,59.05
2022-07-28T12:20:56.009Z,58.85
2022-07-28T12:23:45.452Z,58.59
2022-07-28T12:26:29.534Z,58.52
2022-07-28T12:29:00.154Z,58.19
2022-07-28T12:31:33.185Z,57.99
2022-07-28T12:34:01.553Z,57.54
2022-07-28T12:36:31.138Z,57.43
2022-07-28T12:39:00.527Z,57.40
2022-07-28T12:41:34.421Z,57.40
2022-07-28T12:44:06.130Z,57.14
2022-07-28T12:46:34.543Z,57.03
2022-07-28T12:49:03.291Z,56.98
2022-07-28T12:51:34.608Z,57.03
2022-07-28T12:54:03.436Z,56.55
2022-07-28T12:56:31.451Z,56.57
2022-07-28T12:59:07.157Z,56.32
2022-07-28T13:01:48.699Z,56.40
2022-07-28T13:04:18.348Z,56.25
2022-07-28T13:06:57.562Z,56.27
2022-07-28T13:09:35.145Z,56.03
2022-07-28T13:12:03.544Z,56.05
2022-07-28T13:14:41.225Z,55.75
2022-07-28T13:17:09.273Z,55.50
2022-07-28T13:19:37.678Z,55.88
2022-07-28T13:22:09.314Z,55.67
2022-07-28T13:24:37.842Z,55.80
2022-07-28T13:27:06.917Z,55.74
2022-07-28T13:29:36.418Z,55.20
2022-07-28T13:32:04.728Z,55.18
2022-07-28T13:34:32.863Z,54.91
2022-07-28T13:37:00.956Z,55.00
2022-07-28T13:39:30.672Z,54.95
2022-07-28T13:41:59.393Z,54.45
2022-07-28T13:44:27.867Z,54.68
2022-07-28T13:46:56.927Z,54.48
2022-07-28T13:49:27.871Z,54.25
2022-07-28T13:51:57.290Z,54.10
2022-07-28T13:54:25.457Z,54.03
2022-07-28T13:56:54.748Z,54.01
2022-07-28T13:59:26.150Z,54.12
2022-07-28T14:01:56.029Z,53.81
2022-07-28T14:04:24.709Z,53.85
2022-07-28T14:06:54.925Z,53.63
2022-07-28T14:09:23.061Z,53.34
2022-07-28T14:11:53.530Z,53.29
2022-07-28T14:14:24.934Z,52.68
2022-07-28T14:16:55.161Z,52.93
2022-07-28T14:19:37.949Z,53.00
2022-07-28T14:22:13.372Z,52.64
2022-07-28T14:24:42.232Z,52.04
2022-07-28T14:27:11.073Z,52.80
2022-07-28T14:29:40.541Z,52.52
2022-07-28T14:32:08.824Z,51.73
2022-07-28T14:34:36.967Z,51.55
2022-07-28T14:37:09.176Z,51.50
2022-07-28T14:39:38.475Z,51.33
2022-07-28T14:42:07.666Z,51.07
2022-07-28T14:44:35.704Z,50.92
2022-07-28T14:47:07.529Z,50.97
2022-07-28T14:49:36.012Z,50.40
2022-07-28T14:52:04.572Z,50.64
2022-07-28T14:54:34.953Z,50.27
2022-07-28T14:57:03.426Z,50.36
2022-07-28T14:59:31.263Z,50.25
2022-07-28T15:01:59.729Z,49.96
2022-07-28T15:04:28.997Z,49.81
2022-07-28T15:06:56.789Z,49.86
2022-07-28T15:09:24.762Z,49.67
2022-07-28T15:11:52.935Z,49.81
2022-07-28T15:14:21.366Z,49.54
2022-07-28T15:16:50.074Z,49.42
2022-07-28T15:19:18.213Z,49.53
2022-07-28T15:21:48.024Z,49.43
2022-07-28T15:24:17.069Z,49.35
2022-07-28T15:26:45.365Z,49.00
2022-07-28T15:29:13.513Z,48.82
2022-07-28T15:31:42.716Z,48.90
2022-07-28T15:34:13.386Z,48.51
2022-07-28T15:36:42.538Z,48.53
2022-07-28T15:39:14.714Z,48.59
2022-07-28T15:41:43.782Z,48.47
2022-07-28T15:44:12.756Z,48.74
2022-07-28T15:46:41.889Z,48.68
2022-07-28T15:49:12.662Z,48.71
2022-07-28T15:51:41.222Z,48.66
2022-07-28T15:54:09.382Z,48.39
2022-07-28T15:56:38.837Z,48.45
2022-07-28T15:59:07.655Z,48.58
2022-07-28T16:01:35.605Z,48.28
2022-07-28T16:04:04.430Z,48.45
2022-07-28T16:06:48.756Z,47.84
2022-07-28T16:09:16.884Z,48.16
2022-07-28T16:11:46.514Z,47.54
2022-07-28T16:14:14.745Z,47.58
2022-07-28T16:16:42.955Z,47.34
2022-07-28T16:19:31.756Z,47.23
2022-07-28T16:21:59.261Z,47.06
2022-07-28T16:24:27.157Z,46.93
2022-07-28T16:26:56.540Z,46.58
2022-07-28T16:29:24.654Z,46.83
2022-07-28T16:31:52.640Z,46.71
2022-07-28T16:34:20.472Z,46.77
2022-07-28T16:36:49.433Z,46.79
2022-07-28T16:39:17.385Z,46.51
2022-07-28T16:41:47.707Z,46.38
2022-07-28T16:44:18.348Z,46.24
2022-07-28T16:46:46.834Z,46.12
2022-07-28T16:49:16.084Z,46.39
2022-07-28T16:51:44.570Z,45.99
2022-07-28T16:54:14.003Z,45.90
2022-07-28T16:56:42.878Z,45.83
2022-07-28T16:59:10.720Z,45.92
2022-07-28T17:01:45.550Z,45.70
2022-07-28T17:04:14.383Z,45.70
2022-07-28T17:06:42.774Z,45.55
2022-07-28T17:09:11.220Z,45.59
2022-07-28T17:11:40.666Z,45.34
2022-07-28T17:14:08.877Z,45.37
2022-07-28T17:16:37.137Z,45.33
2022-07-28T17:19:06.538Z,45.15
2022-07-28T17:21:35.810Z,45.13
2022-07-28T17:24:03.961Z,45.16
2022-07-28T17:29:21.210Z,45.01
2022-07-28T17:31:49.811Z,45.12
2022-07-28T17:34:19.939Z,44.90
2022-07-28T17:36:48.214Z,44.91
2022-07-28T17:39:16.050Z,44.76
2022-07-28T17:41:44.046Z,44.66
2022-07-28T17:44:11.936Z,44.71
2022-07-28T17:46:40.329Z,44.59
2022-07-28T17:49:10.321Z,44.60
2022-07-28T17:51:39.531Z,44.72
2022-07-28T17:54:07.592Z,44.44
2022-07-28T17:56:38.305Z,44.52
2022-07-28T17:59:08.056Z,44.51
2022-07-28T18:01:36.217Z,44.42
2022-07-28T18:04:04.099Z,44.37
2022-07-28T18:06:35.028Z,44.21
2022-07-28T18:09:08.206Z,44.33
2022-07-28T18:11:57.905Z,44.24
2022-07-28T18:14:26.363Z,44.21
2022-07-28T18:16:54.439Z,44.16
2022-07-28T18:19:22.489Z,44.25
2022-07-28T18:21:50.361Z,44.20
2022-07-28T18:24:22.312Z,44.20
2022-07-28T18:26:51.078Z,44.12
2022-07-28T18:29:20.336Z,44.09
2022-07-28T18:31:50.834Z,44.15
2022-07-28T18:34:19.454Z,44.06
2022-07-28T18:36:51.755Z,43.93
2022-07-28T18:39:21.074Z,44.09
2022-07-28T18:41:48.908Z,43.97
2022-07-28T18:44:18.067Z,44.26
2022-07-28T18:46:46.648Z,44.12
2022-07-28T18:49:14.641Z,43.95
2022-07-28T18:51:45.112Z,44.11
2022-07-28T18:54:15.601Z,44.31
2022-07-28T18:56:47.073Z,43.98
2022-07-28T18:59:14.901Z,44.16
2022-07-28T19:01:42.833Z,44.03
2022-07-28T19:04:10.955Z,43.93
2022-07-28T19:06:38.804Z,43.91
2022-07-28T19:09:06.905Z,44.12
2022-07-28T19:11:35.125Z,43.95
2022-07-28T19:14:05.392Z,44.09
2022-07-28T19:16:33.835Z,44.07
2022-07-28T19:19:02.710Z,44.23
2022-07-28T19:21:31.124Z,44.05
2022-07-28T19:23:58.958Z,44.28
2022-07-28T19:26:27.109Z,44.16
2022-07-28T19:28:55.219Z,44.06
2022-07-28T19:31:25.515Z,44.23
2022-07-28T19:33:55.561Z,44.01
2022-07-28T19:36:23.449Z,44.25
2022-07-28T19:38:51.463Z,44.22
2022-07-28T19:41:19.443Z,44.05
2022-07-28T19:43:47.481Z,44.12
2022-07-28T19:46:15.800Z,44.20
2022-07-28T19:48:45.147Z,44.45
2022-07-28T19:51:13.172Z,44.28
2022-07-28T19:53:41.426Z,44.18
2022-07-28T19:56:09.382Z,44.24
2022-07-28T19:58:37.629Z,44.25
2022-07-28T20:01:06.480Z,44.35
2022-07-28T20:04:02.478Z,44.34
2022-07-28T20:06:24.945Z,44.38
2022-07-28T20:08:53.970Z,44.28
2022-07-28T20:11:21.915Z,44.40
2022-07-28T20:13:50.191Z,44.61
2022-07-28T20:16:18.537Z,44.70
2022-07-28T20:18:46.423Z,44.77
2022-07-28T20:21:14.808Z,44.58
2022-07-28T20:23:44.017Z,44.95
2022-07-28T20:26:12.398Z,44.90
2022-07-28T20:28:40.375Z,44.61
2022-07-28T20:31:11.326Z,44.85
2022-07-28T20:33:41.811Z,44.95
2022-07-28T20:36:09.621Z,44.98
2022-07-28T20:38:39.291Z,45.09
2022-07-28T20:41:08.975Z,44.68
2022-07-28T20:43:38.061Z,44.95
2022-07-28T20:46:06.168Z,44.87
2022-07-28T20:48:35.014Z,45.06
2022-07-28T20:51:03.041Z,45.26
2022-07-28T20:53:30.858Z,44.96
2022-07-28T20:55:58.704Z,44.95
2022-07-28T20:58:28.348Z,45.10
2022-07-28T21:00:58.433Z,45.03
2022-07-28T21:03:26.370Z,45.18
2022-07-28T21:05:54.914Z,45.19
2022-07-28T21:08:23.090Z,45.25
2022-07-28T21:10:51.410Z,45.37
2022-07-28T21:13:19.339Z,45.37
2022-07-28T21:15:48.586Z,45.32
2022-07-28T21:18:17.996Z,45.54
2022-07-28T21:20:46.030Z,45.40
2022-07-28T21:23:13.854Z,45.50
2022-07-28T21:25:45.171Z,45.42
2022-07-28T21:28:31.127Z,45.62
2022-07-28T21:31:02.451Z,45.57
2022-07-28T21:33:30.434Z,45.83
2022-07-28T21:35:58.299Z,45.76
2022-07-28T21:38:26.449Z,45.83
2022-07-28T21:40:54.269Z,45.77
2022-07-28T21:43:22.109Z,45.85
2022-07-28T21:45:50.330Z,45.93
2022-07-28T21:48:23.320Z,45.84
2022-07-28T21:50:51.593Z,45.80
2022-07-28T21:53:19.848Z,46.05
2022-07-28T21:55:48.587Z,46.19
2022-07-28T21:58:17.296Z,46.21
2022-07-28T22:00:45.193Z,46.24
2022-07-28T22:03:13.070Z,46.48
2022-07-28T22:05:43.071Z,46.64
2022-07-28T22:08:10.873Z,46.15
2022-07-28T22:10:38.709Z,46.65
2022-07-28T22:13:06.811Z,46.13
2022-07-28T22:15:34.718Z,46.42
2022-07-28T22:18:02.514Z,46.12
2022-07-28T22:20:30.799Z,46.45
2022-07-28T22:23:00.019Z,46.33
2022-07-28T22:25:28.103Z,46.48
2022-07-28T22:27:56.118Z,46.88
2022-07-28T22:30:23.958Z,46.56
2022-07-28T22:32:51.748Z,46.57
2022-07-28T22:35:19.787Z,47.18
2022-07-28T22:37:47.698Z,46.80
2022-07-28T22:40:17.260Z,46.80
2022-07-28T22:42:45.842Z,47.30
2022-07-28T22:45:13.930Z,47.28
2022-07-28T22:47:42.752Z,46.93
2022-07-28T22:50:11.560Z,47.07
2022-07-28T22:52:39.469Z,46.65
2022-07-28T22:55:08.872Z,47.77
2022-07-28T22:57:38.086Z,47.50
2022-07-28T23:00:07.667Z,47.83
2022-07-28T23:02:35.772Z,47.76
2022-07-28T23:05:05.371Z,47.31
2022-07-28T23:07:52.779Z,48.20
2022-07-28T23:10:21.315Z,47.80
2022-07-28T23:12:51.048Z,47.88
2022-07-28T23:15:18.980Z,47.46
2022-07-28T23:17:46.785Z,47.77
2022-07-28T23:20:14.830Z,47.69
2022-07-28T23:22:42.625Z,48.12
2022-07-28T23:25:10.840Z,47.98
2022-07-28T23:27:38.955Z,47.80
2022-07-28T23:30:09.266Z,48.32
2022-07-28T23:32:37.079Z,48.59
2022-07-28T23:35:06.026Z,48.48
2022-07-28T23:37:34.339Z,49.22
2022-07-28T23:40:02.433Z,49.16
2022-07-28T23:42:30.338Z,49.18
2022-07-28T23:44:58.133Z,49.27
2022-07-28T23:47:27.759Z,49.17
2022-07-28T23:49:55.881Z,49.24
2022-07-28T23:52:23.778Z,48.71
2022-07-28T23:54:52.033Z,49.35
2022-07-28T23:57:19.997Z,49.56
2022-07-28T23:59:47.938Z,49.57
